Terminal Aerodrome Forecast
Issued by NWS

Home | Current Version | Previous Version | Text Only | Print | Product List | Glossary On
Versions: 1 2 3 4 5 6 7 8 9 10 11 12 13 14 15 16 17 18 19 20 21 22 23 24 25 26 27 28
000
FTUS46 KPQR 301602 AAB
TAFONP
TAF AMD
KONP 301602Z 3016/0112 VRB03KT 2SM BR OVC002
      TEMPO 3016/3018 1/2SM FG
     FM301800 15004KT 5SM BR SCT005
     FM302100 21012KT 4SM -SHRA BR BKN015 OVC035
     FM010000 18010KT 1SM -SHRA BR BKN007 OVC025=

USA.gov is the U.S. government's official web portal to all federal, state and local government web resources and services.